Time;durP1;ratioP1;P1;durP2;ratioP2;P2;SDS_P1;SDS_P2;PMS_P1;PMS_P2;Temp;Humidity;BMP_temperature;BMP_pressure;BME280_temperature;BME280_humidity;BME280_pressure;Samples;Min_cycle;Max_cycle;Signal;HPM_P1;HPM_P2
2022/01/29 00:01:38;;;;;;;;;17.25;14.25;;;;;9.64;62.24;103060.41;4971984;28;45429;-73
2022/01/29 00:04:04;;;;;;;;;22.75;15.50;;;;;9.64;62.37;103054.16;4973442;28;45647;-73
2022/01/29 00:06:29;;;;;;;;;13.25;12.25;;;;;9.62;62.39;103042.44;4973299;28;45406;-72
2022/01/29 00:08:56;;;;;;;;;17.75;14.25;;;;;9.67;62.61;103049.00;4972479;28;46044;-72
2022/01/29 00:11:28;;;;;;;;;19.00;18.25;;;;;9.68;61.88;103056.19;4972412;28;45546;-73
2022/01/29 00:13:53;;;;;;;;;16.25;16.25;;;;;9.48;62.09;103012.16;4972539;28;45513;-72
2022/01/29 00:16:18;;;;;;;;;25.50;24.25;;;;;9.60;62.12;103045.00;4971032;28;45409;-72
2022/01/29 00:18:44;;;;;;;;;27.50;20.50;;;;;9.58;62.38;103033.31;4970179;28;46284;-72
2022/01/29 00:21:10;;;;;;;;;23.50;20.75;;;;;9.66;61.99;103029.41;4973368;28;45595;-72
2022/01/29 00:23:35;;;;;;;;;21.00;17.25;;;;;9.56;61.77;103006.50;4973332;28;45739;-71
2022/01/29 00:26:01;;;;;;;;;20.75;17.50;;;;;9.47;62.48;102994.28;4973004;28;45572;-72
2022/01/29 00:28:27;;;;;;;;;18.75;18.25;;;;;9.18;61.81;102947.94;4972417;28;45952;-72
2022/01/29 00:30:52;;;;;;;;;17.00;15.25;;;;;9.58;62.00;103017.28;4979714;27;45384;-72
2022/01/29 00:33:18;;;;;;;;;24.50;16.50;;;;;9.46;61.87;102998.72;4987881;27;45442;-72
2022/01/29 00:35:44;;;;;;;;;15.25;14.25;;;;;9.55;62.66;103006.41;4989676;27;45390;-71
2022/01/29 00:38:09;;;;;;;;;18.00;16.50;;;;;9.52;62.36;103003.53;4991397;27;46476;-73
2022/01/29 00:40:36;;;;;;;;;17.75;15.75;;;;;9.48;62.29;103010.41;4967542;28;45797;-72
2022/01/29 00:43:05;;;;;;;;;21.00;15.00;;;;;9.45;62.36;103007.53;4991935;27;45380;-72
2022/01/29 00:45:32;;;;;;;;;14.75;13.25;;;;;9.44;63.27;103007.44;4989083;27;45582;-72
2022/01/29 00:47:57;;;;;;;;;16.00;14.00;;;;;9.35;62.62;102986.41;4967498;28;47370;-71
2022/01/29 00:50:23;;;;;;;;;16.25;14.00;;;;;9.32;63.40;102981.78;4989713;27;45466;-72
2022/01/29 00:52:48;;;;;;;;;17.50;12.75;;;;;9.03;63.41;102934.47;4991382;27;45370;-72
2022/01/29 00:55:14;;;;;;;;;20.75;16.50;;;;;9.34;63.38;102996.16;4986374;27;45607;-71
2022/01/29 00:57:40;;;;;;;;;17.50;15.00;;;;;9.13;62.90;102957.38;4991806;27;45407;-73
2022/01/29 01:00:09;;;;;;;;;16.50;13.25;;;;;8.82;63.93;102897.53;4991995;27;45411;-72
2022/01/29 01:02:34;;;;;;;;;14.50;12.00;;;;;9.32;63.39;102987.13;4989644;27;45453;-74
2022/01/29 01:05:00;;;;;;;;;15.25;12.00;;;;;9.32;63.75;102976.47;4974424;28;45533;-73
2022/01/29 01:07:26;;;;;;;;;17.50;15.25;;;;;9.36;64.16;102981.16;4989777;27;46185;-73
2022/01/29 01:09:51;;;;;;;;;22.00;19.00;;;;;9.39;63.83;102977.78;4991453;27;45507;-73
2022/01/29 01:12:16;;;;;;;;;21.00;17.50;;;;;9.38;64.23;102973.25;4991434;27;45422;-72
2022/01/29 01:14:42;;;;;;;;;17.75;16.75;;;;;9.36;64.41;102977.59;4992209;28;45553;-71
2022/01/29 01:17:07;;;;;;;;;15.25;12.00;;;;;9.08;64.81;102932.13;4990923;27;46306;-73
2022/01/29 01:19:33;;;;;;;;;20.50;17.00;;;;;9.26;65.89;102964.47;4991218;27;45483;-72
2022/01/29 01:21:59;;;;;;;;;15.25;13.00;;;;;9.10;65.14;102938.47;4990432;28;45555;-71
2022/01/29 01:24:27;;;;;;;;;21.50;15.75;;;;;9.16;65.17;102953.16;4992411;27;45402;-72
2022/01/29 01:26:53;;;;;;;;;17.75;13.50;;;;;9.28;65.88;102977.06;4991692;27;45366;-71
2022/01/29 01:29:18;;;;;;;;;19.50;16.75;;;;;9.07;66.57;102936.50;4973759;28;45532;-74
2022/01/29 01:31:45;;;;;;;;;14.50;13.00;;;;;9.29;66.31;102975.31;4987046;28;45413;-72
2022/01/29 01:34:15;;;;;;;;;18.00;13.50;;;;;9.31;67.43;102984.34;4991853;27;45414;-72
2022/01/29 01:36:55;;;;;;;;;16.00;16.00;;;;;9.18;67.57;102951.50;4991625;27;46628;-72
2022/01/29 01:39:25;;;;;;;;;17.50;16.00;;;;;9.25;67.55;102967.94;4991828;28;45531;-72
2022/01/29 01:42:08;;;;;;;;;20.25;14.75;;;;;9.23;67.95;102982.06;4991230;27;45396;-72
2022/01/29 01:44:42;;;;;;;;;18.25;15.00;;;;;8.95;67.96;102938.38;4991781;28;45561;-72
2022/01/29 01:47:08;;;;;;;;;18.00;17.75;;;;;9.02;68.59;102946.91;4988246;27;47157;-73
2022/01/29 01:49:33;;;;;;;;;18.75;15.00;;;;;9.17;68.94;102971.00;4991293;28;45520;-72
2022/01/29 01:51:59;;;;;;;;;19.50;17.75;;;;;9.04;68.95;102942.59;4989562;27;45497;-72
2022/01/29 01:54:24;;;;;;;;;19.25;18.00;;;;;9.16;69.69;102966.50;4991803;28;45952;-73
2022/01/29 01:56:49;;;;;;;;;16.25;15.50;;;;;9.15;69.97;102955.72;4991272;27;45480;-72
2022/01/29 01:59:15;;;;;;;;;23.75;21.00;;;;;9.15;69.85;102969.06;4987367;28;45534;-72
2022/01/29 02:01:40;;;;;;;;;21.00;16.75;;;;;9.11;70.22;102959.00;4991697;27;45505;-72
2022/01/29 02:04:05;;;;;;;;;22.75;18.00;;;;;9.07;69.11;102949.84;4991987;28;45453;-73
2022/01/29 02:06:31;;;;;;;;;20.25;17.50;;;;;9.12;69.97;102958.16;4991120;27;46077;-73
2022/01/29 02:09:00;;;;;;;;;16.25;13.25;;;;;9.08;69.46;102943.72;4991456;28;45439;-72
2022/01/29 02:11:27;;;;;;;;;18.25;16.75;;;;;9.04;69.44;102944.31;4991876;28;45514;-73
2022/01/29 02:13:56;;;;;;;;;18.75;12.25;;;;;9.01;70.00;102942.38;4972706;28;45535;-71
2022/01/29 02:16:21;;;;;;;;;17.75;14.25;;;;;8.96;70.40;102933.13;4991045;27;47087;-72
2022/01/29 02:18:46;;;;;;;;;18.75;17.00;;;;;9.08;69.53;102943.72;4991707;28;45552;-73
2022/01/29 02:21:13;;;;;;;;;20.75;16.25;;;;;9.04;69.97;102931.91;4974382;28;45424;-72
2022/01/29 02:23:38;;;;;;;;;18.75;14.00;;;;;8.99;69.92;102927.06;4973985;28;45382;-74
2022/01/29 02:26:04;;;;;;;;;19.25;17.25;;;;;8.57;70.50;102859.38;4992892;27;45368;-74
2022/01/29 02:28:29;;;;;;;;;14.75;14.25;;;;;8.99;70.00;102916.41;4992166;28;45395;-74
2022/01/29 02:31:00;;;;;;;;;16.25;16.25;;;;;9.04;70.46;102929.25;4991435;27;45400;-73
2022/01/29 02:33:27;;;;;;;;;21.25;16.00;;;;;9.02;70.03;102920.25;4991919;28;45558;-74
2022/01/29 02:35:54;;;;;;;;;16.00;15.50;;;;;9.02;69.84;102919.28;4991539;28;46135;-72
2022/01/29 02:38:23;;;;;;;;;12.25;10.25;;;;;8.76;70.52;102881.16;4991324;27;45455;-72
2022/01/29 02:40:51;;;;;;;;;17.50;15.75;;;;;8.96;69.36;102914.47;4990567;28;45600;-72
2022/01/29 02:43:31;;;;;;;;;17.25;12.75;;;;;8.99;70.62;102900.41;4991693;28;45468;-73
2022/01/29 02:46:04;;;;;;;;;17.50;12.75;;;;;9.00;70.49;102905.84;4988042;27;45538;-74
2022/01/29 02:48:30;;;;;;;;;23.00;15.00;;;;;8.87;70.36;102875.59;4991209;27;45326;-73
2022/01/29 02:50:56;;;;;;;;;19.50;16.25;;;;;8.85;69.69;102873.75;4988195;27;45528;-71
2022/01/29 02:53:21;;;;;;;;;22.25;18.75;;;;;9.02;69.80;102882.91;4989864;28;45502;-73
2022/01/29 02:55:47;;;;;;;;;19.50;17.25;;;;;9.04;70.40;102873.25;4992085;27;45323;-72
2022/01/29 02:58:12;;;;;;;;;13.25;13.25;;;;;9.10;69.60;102880.72;4991480;28;45465;-71
2022/01/29 03:00:37;;;;;;;;;12.75;11.25;;;;;9.08;70.36;102871.72;4991438;28;45379;-71
2022/01/29 03:03:03;;;;;;;;;14.00;13.75;;;;;8.61;69.46;102784.16;4991289;27;45539;-72
2022/01/29 03:05:28;;;;;;;;;12.25;11.50;;;;;9.11;70.10;102865.69;4989608;28;45635;-73
2022/01/29 03:07:54;;;;;;;;;15.25;12.00;;;;;9.03;70.36;102855.41;4990660;28;45325;-73
2022/01/29 03:10:22;;;;;;;;;20.00;16.00;;;;;8.89;69.86;102829.56;4990731;28;45554;-73
2022/01/29 03:12:47;;;;;;;;;22.75;17.25;;;;;9.13;69.94;102861.38;4990838;28;45369;-72
2022/01/29 03:15:13;;;;;;;;;18.25;13.00;;;;;8.66;69.54;102778.31;4990086;28;46386;-74
2022/01/29 03:17:39;;;;;;;;;14.50;10.25;;;;;9.07;69.79;102867.19;4973350;28;45290;-73
2022/01/29 03:20:05;;;;;;;;;14.00;14.00;;;;;8.98;70.15;102839.94;4988916;28;45505;-74
2022/01/29 03:22:31;;;;;;;;;11.00;11.00;;;;;8.81;69.71;102823.72;4987419;27;45549;-72
2022/01/29 03:24:56;;;;;;;;;14.50;12.75;;;;;8.81;70.21;102823.72;4993318;27;46079;-72
2022/01/29 03:27:22;;;;;;;;;16.00;11.25;;;;;8.80;69.79;102818.31;4993876;27;45391;-71
2022/01/29 03:29:47;;;;;;;;;18.25;12.25;;;;;8.81;69.96;102818.41;4993610;28;45261;-74
2022/01/29 03:32:13;;;;;;;;;14.25;10.50;;;;;8.95;69.92;102837.97;4993869;27;45528;-73
2022/01/29 03:34:38;;;;;;;;;12.75;9.75;;;;;8.92;70.46;102839.53;4992765;28;45449;-72
2022/01/29 03:37:04;;;;;;;;;11.75;10.50;;;;;9.08;70.34;102862.81;4993453;28;45858;-72
2022/01/29 03:39:30;;;;;;;;;10.50;10.00;;;;;9.10;70.69;102856.72;4993170;28;45472;-72
2022/01/29 03:42:02;;;;;;;;;16.25;15.50;;;;;9.07;71.01;102860.94;4993762;28;45390;-72
2022/01/29 03:44:27;;;;;;;;;13.00;12.00;;;;;9.10;69.83;102861.16;4993306;28;45367;-71
2022/01/29 03:46:53;;;;;;;;;14.00;14.00;;;;;9.04;71.23;102842.97;4993360;28;45361;-73
2022/01/29 03:49:18;;;;;;;;;19.00;13.75;;;;;9.03;70.37;102833.16;4986932;27;45369;-75
2022/01/29 03:51:43;;;;;;;;;11.75;10.25;;;;;9.00;70.26;102825.88;4993007;27;45409;-74
2022/01/29 03:54:09;;;;;;;;;13.00;12.00;;;;;9.07;70.98;102832.53;4993139;28;46311;-73
2022/01/29 03:56:34;;;;;;;;;16.25;12.25;;;;;9.17;70.71;102842.06;4993299;28;45523;-71
2022/01/29 03:58:59;;;;;;;;;10.75;10.75;;;;;9.20;70.04;102845.84;4993349;28;45838;-71
2022/01/29 04:01:25;;;;;;;;;14.25;12.25;;;;;9.17;70.09;102845.66;4975932;28;45539;-74
2022/01/29 04:03:50;;;;;;;;;17.00;12.00;;;;;9.00;70.69;102827.63;4988901;28;45420;-74
2022/01/29 04:06:15;;;;;;;;;17.25;14.50;;;;;8.94;70.20;102796.16;4993084;27;45464;-74
2022/01/29 04:08:43;;;;;;;;;12.75;10.25;;;;;9.29;70.46;102861.56;4993531;27;46270;-74
2022/01/29 04:11:11;;;;;;;;;17.75;12.75;;;;;9.31;70.53;102854.56;4993244;27;45325;-74
2022/01/29 04:13:38;;;;;;;;;16.50;14.75;;;;;9.18;70.44;102822.56;4993960;28;45486;-73
2022/01/29 04:16:03;;;;;;;;;14.75;12.25;;;;;9.36;70.60;102846.88;4976230;28;45590;-72
2022/01/29 04:18:29;;;;;;;;;16.00;13.00;;;;;9.14;70.18;102808.13;4993686;27;45343;-72
2022/01/29 04:20:54;;;;;;;;;17.25;16.50;;;;;9.34;70.00;102844.09;4994623;28;45421;-72
2022/01/29 04:23:19;;;;;;;;;19.75;15.25;;;;;9.32;70.04;102848.41;4994703;28;45961;-74
2022/01/29 04:25:45;;;;;;;;;16.50;16.50;;;;;9.20;70.21;102816.50;4992918;27;45460;-73
2022/01/29 04:28:12;;;;;;;;;14.00;13.00;;;;;9.31;70.45;102845.66;4992963;27;45334;-72
2022/01/29 04:30:46;;;;;;;;;14.25;11.75;;;;;9.31;70.64;102853.66;4992928;27;45504;-74
2022/01/29 04:35:50;;;;;;;;;14.50;12.75;;;;;9.38;70.59;102851.47;5016182;28;45325;-72
2022/01/29 04:38:15;;;;;;;;;13.50;13.50;;;;;9.38;70.59;102855.88;4990634;28;45226;-72
2022/01/29 04:40:42;;;;;;;;;9.00;9.00;;;;;9.29;70.26;102826.88;4993283;27;45599;-75
2022/01/29 04:43:07;;;;;;;;;15.50;12.50;;;;;9.33;70.32;102822.66;4992537;27;46464;-72
2022/01/29 04:45:33;;;;;;;;;19.00;13.75;;;;;9.46;70.21;102837.72;4986249;28;45271;-73
2022/01/29 04:47:59;;;;;;;;;13.25;11.75;;;;;9.01;70.75;102761.06;4992926;27;45297;-72
2022/01/29 04:50:24;;;;;;;;;12.75;11.75;;;;;9.44;70.25;102836.66;4993083;28;45469;-74
2022/01/29 04:52:50;;;;;;;;;18.75;14.00;;;;;9.49;71.40;102835.25;4992589;27;46160;-72
2022/01/29 04:55:15;;;;;;;;;13.00;12.00;;;;;9.33;71.41;102811.97;4974984;28;45775;-73
2022/01/29 04:57:41;;;;;;;;;17.00;16.00;;;;;9.49;70.67;102840.59;4993304;27;45686;-73
2022/01/29 05:00:20;;;;;;;;;9.75;9.25;;;;;9.48;71.19;102830.72;4975253;28;45354;-75
2022/01/29 05:02:47;;;;;;;;;13.50;11.50;;;;;9.38;71.83;102816.78;4992170;27;46083;-74
2022/01/29 05:05:13;;;;;;;;;14.25;14.00;;;;;9.26;71.61;102792.00;4987183;27;45378;-74
2022/01/29 05:07:38;;;;;;;;;12.50;12.50;;;;;9.43;71.27;102827.75;4991967;28;45339;-74
2022/01/29 05:10:04;;;;;;;;;10.75;10.75;;;;;9.28;71.54;102795.69;4992193;27;45232;-72
2022/01/29 05:12:40;;;;;;;;;29.25;16.50;;;;;9.28;71.46;102801.00;4974396;27;46738;-72
2022/01/29 05:15:12;;;;;;;;;14.00;13.25;;;;;9.49;70.91;102845.91;4992174;28;45536;-73
2022/01/29 05:28:33;;;;;;;;;15.50;11.75;;;;;9.49;71.23;102828.16;5011179;27;45543;-74
2022/01/29 05:30:58;;;;;;;;;18.75;14.00;;;;;9.57;71.44;102844.66;4992027;27;45571;-74
2022/01/29 05:33:24;;;;;;;;;14.25;14.00;;;;;9.47;71.79;102826.19;4988720;27;45959;-74
2022/01/29 05:35:49;;;;;;;;;19.00;16.75;;;;;9.37;71.65;102796.28;4990378;27;46790;-73
2022/01/29 05:38:14;;;;;;;;;13.25;11.25;;;;;9.63;70.97;102837.03;4991491;28;46203;-74
2022/01/29 05:40:40;;;;;;;;;17.75;14.00;;;;;9.65;71.45;102831.78;4991859;27;45437;-73
2022/01/29 05:43:05;;;;;;;;;16.25;14.50;;;;;9.58;71.36;102806.47;4990850;27;46090;-74
2022/01/29 05:45:30;;;;;;;;;12.00;10.75;;;;;9.47;70.86;102791.50;4992269;28;44824;-73
2022/01/29 05:47:56;;;;;;;;;12.50;12.25;;;;;9.64;71.45;102832.63;4992080;28;45375;-73
2022/01/29 05:50:21;;;;;;;;;11.00;10.00;;;;;9.66;71.68;102823.88;4988298;28;45440;-74
2022/01/29 05:52:46;;;;;;;;;15.50;11.25;;;;;9.67;71.55;102833.75;4989786;28;45498;-75
2022/01/29 05:55:12;;;;;;;;;16.00;13.50;;;;;9.47;71.27;102791.50;4991885;27;45607;-75
2022/01/29 05:57:37;;;;;;;;;11.75;11.25;;;;;9.73;71.47;102822.53;4992034;27;45503;-75
2022/01/29 06:00:05;;;;;;;;;23.00;14.00;;;;;9.74;70.97;102819.94;4992044;28;45510;-74
2022/01/29 06:02:30;;;;;;;;;15.50;14.25;;;;;9.75;71.29;102823.53;4991466;27;45795;-74
2022/01/29 06:04:55;;;;;;;;;14.75;13.50;;;;;9.74;71.69;102816.38;4991432;27;45404;-73
2022/01/29 06:07:21;;;;;;;;;16.00;13.00;;;;;9.73;71.52;102818.13;4991273;27;45287;-74
2022/01/29 06:09:48;;;;;;;;;14.75;14.75;;;;;9.56;70.91;102784.09;4967270;28;45314;-74
2022/01/29 06:12:13;;;;;;;;;18.75;13.50;;;;;9.70;71.56;102815.25;4991101;27;45581;-73
2022/01/29 06:14:38;;;;;;;;;11.75;10.50;;;;;9.67;71.73;102806.13;4984383;28;45736;-75
2022/01/29 06:17:04;;;;;;;;;15.00;11.00;;;;;9.59;71.29;102785.22;4993525;27;45409;-74
2022/01/29 06:19:29;;;;;;;;;16.50;12.75;;;;;9.76;71.23;102818.28;4993182;27;45733;-73
2022/01/29 06:21:55;;;;;;;;;14.75;12.00;;;;;9.69;71.40;102794.72;4991428;28;45461;-75
2022/01/29 06:24:20;;;;;;;;;13.50;13.50;;;;;9.76;71.10;102804.94;4991777;27;45687;-75
2022/01/29 06:26:45;;;;;;;;;13.75;12.50;;;;;9.82;71.48;102827.53;4990831;27;45560;-75
2022/01/29 06:29:10;;;;;;;;;14.50;13.00;;;;;9.93;71.50;102818.44;4990798;28;45576;-75
2022/01/29 06:31:36;;;;;;;;;14.25;11.75;;;;;9.86;70.59;102802.88;4984693;28;45450;-74
2022/01/29 06:34:01;;;;;;;;;14.75;13.25;;;;;10.00;70.68;102818.00;4967478;28;45353;-75
2022/01/29 06:36:27;;;;;;;;;12.00;12.00;;;;;9.94;71.02;102815.84;4991544;27;45562;-75
2022/01/29 06:38:52;;;;;;;;;14.50;11.50;;;;;10.02;71.15;102827.03;4991726;28;45515;-74
2022/01/29 06:41:17;;;;;;;;;11.75;9.50;;;;;9.88;70.80;102790.53;4990599;28;45452;-74
2022/01/29 06:43:42;;;;;;;;;14.50;14.50;;;;;9.76;70.97;102772.91;4990604;27;45640;-74
2022/01/29 06:46:08;;;;;;;;;11.50;11.00;;;;;10.05;70.69;102813.88;4985206;28;45873;-74
2022/01/29 06:48:33;;;;;;;;;11.00;8.50;;;;;10.08;70.78;102811.38;4981719;28;45510;-73
2022/01/29 06:50:59;;;;;;;;;13.25;10.75;;;;;9.87;71.03;102773.59;4989593;27;45471;-74
2022/01/29 06:53:24;;;;;;;;;9.75;9.75;;;;;10.11;70.98;102811.59;4994248;27;45376;-73
2022/01/29 06:55:49;;;;;;;;;10.00;10.00;;;;;10.09;71.08;102804.28;4994873;27;45325;-75
2022/01/29 06:58:15;;;;;;;;;10.00;7.75;;;;;10.08;71.11;102808.72;4995148;27;45396;-74
2022/01/29 07:00:40;;;;;;;;;10.25;9.75;;;;;9.80;71.03;102751.75;4994969;27;45345;-73
2022/01/29 07:03:05;;;;;;;;;13.00;10.00;;;;;9.75;71.06;102747.06;4992643;27;45477;-72
2022/01/29 07:05:30;;;;;;;;;9.50;8.75;;;;;9.99;70.86;102804.56;4988824;27;45468;-73
2022/01/29 07:07:56;;;;;;;;;12.00;10.25;;;;;10.10;71.05;102819.50;4991258;28;45434;-74
2022/01/29 07:10:21;;;;;;;;;13.50;6.00;;;;;9.96;71.26;102800.88;4991267;27;46191;-75
2022/01/29 07:12:46;;;;;;;;;10.50;10.50;;;;;10.10;71.41;102815.06;4991730;27;45381;-73
2022/01/29 07:15:13;;;;;;;;;10.00;9.50;;;;;9.63;71.47;102719.59;4993241;28;45487;-74
2022/01/29 07:17:38;;;;;;;;;4.25;4.25;;;;;10.12;71.36;102804.47;4988837;27;45317;-72
2022/01/29 07:20:05;;;;;;;;;6.50;6.00;;;;;9.68;71.46;102725.22;4990330;27;46271;-73
2022/01/29 07:22:30;;;;;;;;;13.50;8.00;;;;;10.13;71.30;102801.91;4971391;28;45449;-72
2022/01/29 07:24:56;;;;;;;;;8.50;8.50;;;;;10.18;71.05;102807.53;4992555;27;45331;-73
2022/01/29 07:27:21;;;;;;;;;8.00;7.50;;;;;10.11;70.85;102791.94;4993917;27;45296;-72
2022/01/29 07:29:46;;;;;;;;;9.50;8.75;;;;;10.14;71.13;102778.78;4991366;27;45378;-73
2022/01/29 07:32:12;;;;;;;;;7.00;7.00;;;;;10.20;71.17;102787.19;4993318;27;45586;-74
2022/01/29 07:34:37;;;;;;;;;10.75;7.25;;;;;10.12;70.82;102776.00;4992805;27;45945;-75
2022/01/29 07:37:03;;;;;;;;;11.25;10.00;;;;;10.03;70.88;102759.44;4986944;28;46796;-72
2022/01/29 07:39:29;;;;;;;;;7.00;6.75;;;;;10.05;71.22;102755.13;4973589;28;48165;-73
2022/01/29 07:41:55;;;;;;;;;11.50;9.75;;;;;10.07;71.04;102764.13;4990979;27;45510;-75
2022/01/29 07:44:21;;;;;;;;;6.00;4.25;;;;;10.28;70.86;102799.25;4994181;27;45493;-73
2022/01/29 07:46:47;;;;;;;;;6.00;6.00;;;;;10.36;70.44;102812.16;4987431;27;45742;-73
2022/01/29 07:49:12;;;;;;;;;7.00;6.50;;;;;10.39;70.32;102810.59;4988005;27;45774;-73
2022/01/29 07:51:38;;;;;;;;;10.25;6.50;;;;;10.28;70.33;102775.19;4988654;27;45628;-74
2022/01/29 07:54:04;;;;;;;;;7.75;6.00;;;;;10.30;70.61;102788.66;4991298;27;45370;-74
2022/01/29 07:56:29;;;;;;;;;6.00;5.50;;;;;10.37;70.18;102781.97;4988503;27;45627;-74
2022/01/29 07:58:54;;;;;;;;;12.00;9.25;;;;;10.21;70.51;102751.59;4986603;27;46226;-73
2022/01/29 08:01:20;;;;;;;;;6.75;6.75;;;;;10.48;70.85;102788.88;4988329;28;45632;-74
2022/01/29 08:03:50;;;;;;;;;7.00;7.00;;;;;10.25;70.22;102745.63;4987469;27;45398;-74
2022/01/29 08:06:17;;;;;;;;;6.00;3.25;;;;;10.55;70.63;102801.75;4992798;28;45569;-73
2022/01/29 08:08:43;;;;;;;;;4.75;4.75;;;;;10.56;70.79;102795.59;4985105;27;46109;-73
2022/01/29 08:11:10;;;;;;;;;4.75;4.50;;;;;10.57;70.72;102788.50;4989376;27;45491;-73
2022/01/29 08:13:36;;;;;;;;;9.25;7.00;;;;;10.43;70.35;102764.53;4988591;28;45476;-75
2022/01/29 08:16:02;;;;;;;;;6.00;6.00;;;;;10.61;70.39;102795.84;4989915;28;45514;-72
2022/01/29 08:18:31;;;;;;;;;10.25;10.25;;;;;10.63;70.66;102787.09;4989366;27;46365;-74
2022/01/29 08:20:57;;;;;;;;;5.75;4.50;;;;;10.61;70.54;102780.75;4992525;27;45375;-74
2022/01/29 08:23:22;;;;;;;;;4.25;4.00;;;;;10.64;71.03;102774.63;4974920;27;45472;-72
2022/01/29 08:25:48;;;;;;;;;5.25;5.25;;;;;10.58;70.38;102766.28;4996460;27;45410;-74
2022/01/29 08:28:14;;;;;;;;;2.00;2.00;;;;;10.54;70.52;102750.88;4982275;28;45619;-72
2022/01/29 08:30:39;;;;;;;;;4.00;4.00;;;;;10.72;70.52;102781.34;4989221;28;45508;-74
2022/01/29 08:33:06;;;;;;;;;2.25;2.25;;;;;10.59;70.56;102769.06;4992267;27;45451;-74
2022/01/29 08:35:32;;;;;;;;;6.25;6.25;;;;;10.74;70.74;102793.09;4992073;27;45549;-72
2022/01/29 08:37:58;;;;;;;;;4.50;3.25;;;;;10.77;70.77;102792.34;4992004;28;45445;-74
2022/01/29 08:40:24;;;;;;;;;5.00;3.75;;;;;10.61;70.51;102761.09;4991952;27;45397;-74
2022/01/29 08:42:49;;;;;;;;;5.25;4.25;;;;;10.76;70.82;102791.41;4992091;27;45473;-75
2022/01/29 08:45:14;;;;;;;;;5.50;3.00;;;;;10.75;70.62;102807.38;4992489;27;45623;-74
2022/01/29 08:47:41;;;;;;;;;3.50;3.50;;;;;10.77;70.83;102798.59;4990285;28;46193;-74
2022/01/29 08:50:07;;;;;;;;;5.50;5.50;;;;;10.59;71.12;102766.38;4974105;28;45437;-74
2022/01/29 08:52:33;;;;;;;;;5.25;5.25;;;;;10.75;70.99;102788.66;4989731;28;46729;-75
2022/01/29 08:54:59;;;;;;;;;5.25;5.25;;;;;10.76;71.06;102780.72;4990990;27;45564;-74
2022/01/29 08:57:24;;;;;;;;;7.50;6.50;;;;;10.71;70.81;102758.16;4990848;28;45394;-74
2022/01/29 08:59:49;;;;;;;;;1.00;1.00;;;;;10.62;70.69;102753.16;4990524;27;45537;-72
2022/01/29 09:02:15;;;;;;;;;12.75;8.00;;;;;10.86;70.72;102790.22;4992697;27;45834;-74
2022/01/29 09:04:41;;;;;;;;;4.50;4.50;;;;;10.72;71.19;102759.06;4992628;27;45608;-73
2022/01/29 09:07:06;;;;;;;;;13.50;12.00;;;;;10.82;70.88;102777.47;4991791;27;45525;-73
2022/01/29 09:09:32;;;;;;;;;6.00;4.50;;;;;10.69;71.13;102747.38;4991481;27;45306;-74
2022/01/29 09:11:58;;;;;;;;;3.25;3.25;;;;;10.94;70.84;102786.22;4991286;27;45333;-74
2022/01/29 09:14:23;;;;;;;;;2.75;1.75;;;;;10.98;70.43;102788.22;4990515;27;45441;-74
2022/01/29 09:16:48;;;;;;;;;5.50;3.50;;;;;10.99;70.63;102784.72;4975101;28;46162;-74
2022/01/29 09:19:14;;;;;;;;;5.25;5.25;;;;;10.98;70.50;102785.53;4991707;27;45433;-74
2022/01/29 09:21:39;;;;;;;;;4.00;4.00;;;;;10.92;70.71;102776.25;4990592;28;45588;-73
2022/01/29 09:24:05;;;;;;;;;2.00;1.00;;;;;10.73;70.66;102742.19;4992131;28;45450;-73
2022/01/29 09:26:30;;;;;;;;;4.25;4.25;;;;;10.95;70.64;102795.16;4991636;28;45903;-73
2022/01/29 09:28:56;;;;;;;;;0.50;0.00;;;;;10.77;70.52;102739.75;4973868;28;45497;-72
2022/01/29 09:31:21;;;;;;;;;2.25;2.25;;;;;10.90;70.57;102757.44;4973846;28;45531;-74
2022/01/29 09:33:47;;;;;;;;;4.00;4.00;;;;;11.07;70.33;102771.81;4975385;28;45494;-72
2022/01/29 09:36:12;;;;;;;;;3.75;3.75;;;;;10.79;70.50;102716.75;4991075;27;48548;-74
2022/01/29 09:38:38;;;;;;;;;3.25;2.00;;;;;11.13;69.97;102768.53;4991411;28;45516;-74
2022/01/29 09:41:04;;;;;;;;;2.25;2.25;;;;;11.19;70.12;102767.13;4991936;28;45565;-74
2022/01/29 09:43:32;;;;;;;;;5.75;5.50;;;;;11.20;70.10;102768.97;4970836;28;45303;-74
2022/01/29 09:45:58;;;;;;;;;2.75;2.75;;;;;11.23;69.34;102770.88;4989830;28;46256;-74
2022/01/29 09:48:26;;;;;;;;;6.00;3.25;;;;;11.25;69.50;102767.47;4989927;28;45540;-72
2022/01/29 09:50:52;;;;;;;;;4.50;2.50;;;;;11.05;70.14;102722.63;4987321;28;45460;-73
2022/01/29 09:53:18;;;;;;;;;4.00;4.00;;;;;11.12;69.64;102748.91;4990893;27;45522;-72
2022/01/29 09:55:44;;;;;;;;;3.00;3.00;;;;;11.11;69.40;102738.13;4990497;27;45424;-76
2022/01/29 09:58:10;;;;;;;;;5.75;3.00;;;;;11.26;70.01;102765.72;4990962;27;45326;-75
2022/01/29 10:00:36;;;;;;;;;3.50;3.50;;;;;11.25;69.43;102780.88;4991994;27;45556;-72
2022/01/29 10:03:10;;;;;;;;;3.75;3.00;;;;;11.28;69.61;102771.16;4991362;27;45409;-72
2022/01/29 10:05:37;;;;;;;;;21.75;21.00;;;;;11.23;69.53;102768.22;4990849;27;46188;-72
2022/01/29 10:08:05;;;;;;;;;7.25;6.00;;;;;11.30;70.07;102782.84;4992592;27;45655;-72
2022/01/29 10:10:44;;;;;;;;;4.00;3.00;;;;;11.30;69.32;102789.16;4973491;27;45400;-74
2022/01/29 10:13:31;;;;;;;;;2.25;2.25;;;;;11.28;70.27;102790.81;4991414;27;45359;-72
2022/01/29 10:16:34;;;;;;;;;5.00;4.00;;;;;11.28;70.19;102785.44;4989656;27;45431;-72
2022/01/29 10:19:04;;;;;;;;;4.50;3.00;;;;;11.31;69.49;102788.31;4999148;27;45422;-70
2022/01/29 10:21:47;;;;;;;;;4.50;3.00;;;;;9.55;69.50;102473.66;4991337;27;45573;-73
2022/01/29 10:24:15;;;;;;;;;3.50;3.50;;;;;10.32;69.74;102627.63;4996550;27;45466;-75
2022/01/29 10:26:43;;;;;;;;;2.00;2.00;;;;;11.46;69.41;102788.22;4991107;27;45542;-73
2022/01/29 10:29:15;;;;;;;;;2.50;2.50;;;;;10.33;68.67;102607.19;4991051;27;45461;-70
2022/01/29 10:31:49;;;;;;;;;4.75;3.50;;;;;11.48;69.61;102785.66;4991020;27;45587;-74
2022/01/29 10:34:24;;;;;;;;;3.00;3.00;;;;;11.47;69.14;102782.06;4985679;27;45454;-75
2022/01/29 10:37:12;;;;;;;;;3.00;3.00;;;;;11.46;70.16;102779.28;4991098;27;46574;-75
2022/01/29 10:39:37;;;;;;;;;3.50;3.00;;;;;11.44;69.88;102788.16;4991216;27;45435;-72
2022/01/29 10:42:34;;;;;;;;;3.00;3.00;;;;;11.36;69.88;102757.34;4991454;27;45466;-73
2022/01/29 10:45:07;;;;;;;;;3.50;2.50;;;;;10.41;69.89;102579.16;4985337;28;45390;-71
2022/01/29 10:47:56;;;;;;;;;4.25;3.00;;;;;11.54;69.39;102773.50;4989851;28;46629;-75
2022/01/29 10:50:22;;;;;;;;;5.75;4.00;;;;;11.58;69.59;102804.03;4972892;27;45452;-73
2022/01/29 10:52:48;;;;;;;;;2.00;2.00;;;;;11.12;68.77;102690.06;4991642;27;45430;-74
2022/01/29 10:55:14;;;;;;;;;5.00;3.50;;;;;11.16;69.42;102694.72;4974226;28;45343;-75
2022/01/29 10:57:47;;;;;;;;;2.25;2.25;;;;;11.20;69.42;102727.91;4990970;27;46407;-75
2022/01/29 11:00:17;;;;;;;;;2.00;2.00;;;;;11.62;69.78;102774.84;4990913;27;45401;-74
2022/01/29 11:02:44;;;;;;;;;5.00;4.00;;;;;9.61;68.44;102414.38;4990945;28;45482;-76
2022/01/29 11:05:10;;;;;;;;;3.25;3.25;;;;;11.61;69.47;102796.19;4991285;27;45436;-72
2022/01/29 11:07:36;;;;;;;;;3.25;3.25;;;;;11.21;69.25;102711.94;4990266;27;46365;-73
2022/01/29 11:10:05;;;;;;;;;3.50;3.50;;;;;11.65;68.60;102778.53;4990820;27;45391;-77
2022/01/29 11:12:31;;;;;;;;;5.75;3.25;;;;;11.62;68.91;102780.22;4990779;27;45542;-77
2022/01/29 11:14:59;;;;;;;;;1.75;1.75;;;;;11.56;69.87;102773.59;4973301;28;45544;-76
2022/01/29 11:17:31;;;;;;;;;1.25;1.25;;;;;11.47;69.51;102751.69;4990542;27;45369;-73
2022/01/29 11:19:57;;;;;;;;;2.75;2.00;;;;;11.59;69.83;102787.16;4972495;28;45548;-76
2022/01/29 11:22:25;;;;;;;;;3.25;3.25;;;;;10.05;69.15;102530.78;4990387;27;45449;-74
2022/01/29 11:24:58;;;;;;;;;1.25;1.25;;;;;11.29;70.40;102739.13;4990841;27;45294;-75
2022/01/29 11:27:27;;;;;;;;;2.00;2.00;;;;;11.31;70.37;102750.84;4972556;28;46464;-74
2022/01/29 11:29:58;;;;;;;;;2.25;2.00;;;;;11.53;70.14;102773.44;4989821;27;45284;-74
2022/01/29 11:32:24;;;;;;;;;5.50;3.50;;;;;11.44;70.20;102779.19;4972476;28;45528;-75